createdAt,value
2023-03-10T00:01:20.609Z,112.00
2023-03-10T00:03:56.489Z,104.20
2023-03-10T00:06:36.262Z,105.07
2023-03-10T00:09:14.248Z,101.57
2023-03-10T00:11:52.550Z,104.00
2023-03-10T00:14:28.484Z,102.13
2023-03-10T00:17:04.165Z,107.70
2023-03-10T00:19:40.406Z,106.73
2023-03-10T00:22:16.749Z,101.93
2023-03-10T00:24:56.358Z,113.53
2023-03-10T00:27:35.275Z,108.43
2023-03-10T00:30:12.630Z,109.30
2023-03-10T00:32:49.193Z,102.90
2023-03-10T00:35:25.624Z,107.40
2023-03-10T00:38:05.544Z,120.50
2023-03-10T00:40:42.827Z,102.00
2023-03-10T00:43:25.559Z,109.20
2023-03-10T00:46:02.563Z,108.37
2023-03-10T00:48:38.853Z,106.77
2023-03-10T00:51:15.828Z,113.40
2023-03-10T00:54:00.102Z,112.50
2023-03-10T00:56:35.942Z,112.23
2023-03-10T00:59:16.933Z,105.03
2023-03-10T01:01:58.381Z,106.80
2023-03-10T01:04:34.321Z,109.07
2023-03-10T01:07:10.767Z,106.70
2023-03-10T01:09:47.106Z,103.43
2023-03-10T01:12:24.959Z,103.03
2023-03-10T01:15:03.671Z,108.40
2023-03-10T01:17:40.077Z,105.13
2023-03-10T01:20:18.540Z,100.00
2023-03-10T01:22:56.291Z,106.90
2023-03-10T01:25:38.373Z,100.33
2023-03-10T01:28:15.620Z,107.13
2023-03-10T01:30:55.013Z,112.93
2023-03-10T01:33:34.950Z,108.20
2023-03-10T01:36:15.393Z,110.03
2023-03-10T01:38:55.426Z,94.13
2023-03-10T01:41:33.394Z,97.57
2023-03-10T01:44:09.389Z,108.67
2023-03-10T01:46:53.424Z,103.83
2023-03-10T01:49:49.766Z,97.83
2023-03-10T01:52:28.437Z,91.23
2023-03-10T01:55:11.615Z,107.03
2023-03-10T01:57:50.039Z,85.17
2023-03-10T02:00:27.912Z,93.40
2023-03-10T02:03:17.404Z,92.90
2023-03-10T02:06:01.739Z,90.43
2023-03-10T02:08:50.857Z,92.80
2023-03-10T02:11:30.854Z,103.03
2023-03-10T02:14:15.441Z,97.77
2023-03-10T02:16:58.637Z,101.13
2023-03-10T02:19:47.532Z,97.63
2023-03-10T02:22:23.968Z,90.10
2023-03-10T02:25:05.340Z,104.20
2023-03-10T02:27:49.281Z,104.60
2023-03-10T02:30:29.417Z,100.37
2023-03-10T02:33:09.127Z,103.97
2023-03-10T02:35:45.508Z,93.07
2023-03-10T02:38:26.485Z,96.80
2023-03-10T02:41:03.375Z,93.87
2023-03-10T02:43:52.005Z,94.13
2023-03-10T02:46:33.836Z,91.37
2023-03-10T02:49:12.774Z,107.93
2023-03-10T02:51:57.110Z,84.93
2023-03-10T02:54:33.580Z,84.20
2023-03-10T02:57:13.638Z,84.30
2023-03-10T02:59:52.325Z,83.30
2023-03-10T03:02:34.609Z,79.23
2023-03-10T03:05:12.384Z,80.07
2023-03-10T03:07:53.676Z,55.33
2023-03-10T03:10:34.129Z,46.47
2023-03-10T03:13:11.413Z,54.97
2023-03-10T03:15:52.980Z,51.37
2023-03-10T03:18:32.350Z,40.47
2023-03-10T03:21:12.251Z,52.13
2023-03-10T03:23:50.857Z,53.93
2023-03-10T03:26:31.236Z,50.83
2023-03-10T03:29:15.244Z,49.17
2023-03-10T03:31:55.480Z,53.87
2023-03-10T03:34:38.549Z,49.40
2023-03-10T03:37:17.497Z,54.57
2023-03-10T03:39:53.761Z,47.50
2023-03-10T03:42:32.012Z,50.53
2023-03-10T03:45:09.122Z,51.57
2023-03-10T03:47:49.964Z,60.37
2023-03-10T03:50:27.080Z,53.17
2023-03-10T03:53:07.249Z,57.03
2023-03-10T03:55:47.195Z,52.77
2023-03-10T03:58:24.578Z,53.60
2023-03-10T04:01:08.559Z,57.67
2023-03-10T04:03:53.280Z,54.53
2023-03-10T04:06:32.917Z,64.93
2023-03-10T04:09:11.845Z,59.97
2023-03-10T04:11:49.506Z,67.83
2023-03-10T04:14:26.700Z,69.27
2023-03-10T04:17:04.947Z,73.07
2023-03-10T04:19:57.211Z,75.50
2023-03-10T04:23:02.654Z,78.97
2023-03-10T04:26:16.192Z,74.50
2023-03-10T04:30:09.056Z,63.73
2023-03-10T04:33:20.102Z,58.97
2023-03-10T04:36:14.240Z,61.20
2023-03-10T04:38:55.253Z,67.93
2023-03-10T04:41:40.150Z,67.83
2023-03-10T04:44:30.479Z,66.10
2023-03-10T04:47:18.936Z,61.27
2023-03-10T04:49:58.722Z,56.10
2023-03-10T04:52:43.097Z,52.03
2023-03-10T04:55:20.597Z,45.33
2023-03-10T04:58:02.770Z,33.23
2023-03-10T05:00:53.094Z,38.73
2023-03-10T05:03:43.509Z,34.70
2023-03-10T05:06:24.081Z,43.40
2023-03-10T05:09:23.444Z,38.47
2023-03-10T05:12:00.879Z,39.33
2023-03-10T05:14:45.101Z,42.17
2023-03-10T05:17:22.362Z,41.97
2023-03-10T05:20:04.166Z,33.80
2023-03-10T05:22:42.676Z,38.27
2023-03-10T05:25:25.549Z,43.90
2023-03-10T05:28:04.579Z,42.87
2023-03-10T05:30:44.280Z,43.60
2023-03-10T05:33:20.639Z,35.53
2023-03-10T05:36:03.442Z,39.13
2023-03-10T05:38:48.483Z,39.07
2023-03-10T05:41:30.460Z,46.93
2023-03-10T05:44:09.526Z,45.50
2023-03-10T05:46:49.356Z,44.20
2023-03-10T05:49:27.695Z,40.97
2023-03-10T05:52:06.941Z,42.97
2023-03-10T05:54:44.068Z,37.90
2023-03-10T05:57:27.506Z,58.00
2023-03-10T06:00:12.280Z,45.50
2023-03-10T06:03:04.816Z,44.33
2023-03-10T06:05:42.968Z,39.03
2023-03-10T06:08:19.192Z,40.83
2023-03-10T06:10:57.209Z,53.83
2023-03-10T06:13:43.008Z,53.97
2023-03-10T06:16:22.239Z,53.40
2023-03-10T06:19:02.567Z,44.07
2023-03-10T06:21:41.116Z,44.93
2023-03-10T06:24:22.039Z,46.80
2023-03-10T06:26:58.672Z,40.57
2023-03-10T06:29:37.396Z,42.33
2023-03-10T06:32:17.332Z,44.47
2023-03-10T06:34:56.301Z,47.73
2023-03-10T06:37:32.101Z,37.47
2023-03-10T06:40:09.798Z,31.67
2023-03-10T06:42:45.860Z,27.87
2023-03-10T06:45:24.813Z,25.70
2023-03-10T06:48:01.561Z,29.00
2023-03-10T06:50:47.379Z,32.23
2023-03-10T06:53:24.233Z,28.30
2023-03-10T06:56:07.305Z,29.83
2023-03-10T06:58:43.219Z,32.37
2023-03-10T07:01:32.544Z,28.73
2023-03-10T07:04:09.972Z,30.40
2023-03-10T07:06:46.280Z,28.37
2023-03-10T07:09:22.597Z,31.90
2023-03-10T07:12:06.852Z,31.70
2023-03-10T07:14:44.236Z,29.83
2023-03-10T07:17:22.935Z,35.83
2023-03-10T07:19:58.649Z,32.13
2023-03-10T07:22:36.287Z,38.47
2023-03-10T07:25:12.938Z,34.93
2023-03-10T07:27:48.825Z,37.50
2023-03-10T07:30:25.352Z,32.97
2023-03-10T07:33:21.254Z,31.80
2023-03-10T07:36:04.504Z,36.50
2023-03-10T07:39:12.465Z,37.37
2023-03-10T07:41:52.869Z,37.57
2023-03-10T07:44:29.101Z,32.93
2023-03-10T07:47:04.838Z,37.67
2023-03-10T07:49:48.169Z,36.70
2023-03-10T07:52:56.455Z,35.60
2023-03-10T07:55:32.475Z,38.13
2023-03-10T07:58:08.712Z,37.53
2023-03-10T08:00:45.409Z,36.40
2023-03-10T08:03:21.596Z,37.17
2023-03-10T08:06:01.208Z,41.97
2023-03-10T08:08:36.916Z,39.80
2023-03-10T08:11:14.022Z,38.17
2023-03-10T08:13:51.817Z,50.33
2023-03-10T08:16:28.524Z,36.77
2023-03-10T08:19:04.951Z,42.00
2023-03-10T08:21:43.658Z,39.10
2023-03-10T08:24:20.100Z,40.17
2023-03-10T08:26:56.517Z,35.73
2023-03-10T08:29:35.398Z,36.53
2023-03-10T08:32:14.093Z,38.83
2023-03-10T08:34:52.070Z,39.93
2023-03-10T08:37:30.211Z,39.77
2023-03-10T08:40:13.657Z,37.90
2023-03-10T08:42:50.190Z,35.00
2023-03-10T08:45:27.126Z,36.07
2023-03-10T08:48:03.675Z,38.90
2023-03-10T08:50:39.200Z,31.70
2023-03-10T08:53:18.865Z,29.47
2023-03-10T08:55:54.479Z,34.57
2023-03-10T08:58:30.451Z,32.00
2023-03-10T09:01:06.518Z,33.73
2023-03-10T09:03:43.665Z,40.10
2023-03-10T09:06:17.920Z,33.57
2023-03-10T09:08:56.523Z,37.33
2023-03-10T09:11:38.420Z,35.40
2023-03-10T09:14:19.528Z,30.87
2023-03-10T09:16:56.407Z,35.10
2023-03-10T09:20:00.108Z,34.53
2023-03-10T09:22:36.399Z,37.70
2023-03-10T09:25:19.102Z,31.63
2023-03-10T09:27:56.626Z,28.33
2023-03-10T09:30:33.282Z,31.90
2023-03-10T09:33:12.309Z,31.43
2023-03-10T09:36:05.079Z,28.67
2023-03-10T09:38:43.443Z,36.50
2023-03-10T09:41:55.044Z,32.40
2023-03-10T09:44:39.988Z,33.50
2023-03-10T09:47:30.505Z,34.13
2023-03-10T09:50:21.356Z,36.63
2023-03-10T09:53:08.833Z,33.30
2023-03-10T09:55:49.034Z,28.77
2023-03-10T09:58:40.224Z,31.57
2023-03-10T10:01:26.463Z,28.17
2023-03-10T10:04:10.655Z,31.77
2023-03-10T10:06:49.417Z,37.03
2023-03-10T10:09:36.653Z,31.77
2023-03-10T10:12:18.883Z,30.37
2023-03-10T10:15:02.822Z,37.00
2023-03-10T10:17:58.346Z,39.50
2023-03-10T10:20:40.893Z,30.83
2023-03-10T10:23:29.681Z,37.50
2023-03-10T10:26:17.421Z,33.83
2023-03-10T10:29:06.058Z,34.77
2023-03-10T10:32:12.174Z,42.80
2023-03-10T10:34:52.567Z,38.43
2023-03-10T10:37:41.550Z,30.73
2023-03-10T10:40:35.111Z,29.07
2023-03-10T10:43:26.796Z,34.00
2023-03-10T10:46:10.992Z,28.70
2023-03-10T10:48:55.671Z,25.63
2023-03-10T10:51:38.197Z,33.10
2023-03-10T10:54:32.523Z,22.03
2023-03-10T10:57:13.202Z,25.97
2023-03-10T10:59:51.166Z,50.40
2023-03-10T11:02:41.668Z,50.13
2023-03-10T11:05:28.830Z,52.20
2023-03-10T11:08:25.204Z,60.10
2023-03-10T11:11:06.349Z,50.10
2023-03-10T11:13:55.220Z,48.77
2023-03-10T11:16:42.676Z,54.57
2023-03-10T11:19:35.094Z,55.40
2023-03-10T11:22:25.127Z,50.73
2023-03-10T11:25:08.903Z,51.73
2023-03-10T11:27:57.265Z,47.03
2023-03-10T11:30:45.743Z,50.80
2023-03-10T11:33:33.014Z,56.27
2023-03-10T11:36:25.515Z,50.43
2023-03-10T11:39:18.226Z,55.20
2023-03-10T11:42:01.834Z,55.00
2023-03-10T11:44:46.843Z,61.10
2023-03-10T11:47:33.271Z,60.90
2023-03-10T11:50:33.924Z,57.97
2023-03-10T11:53:16.661Z,64.00
2023-03-10T11:55:57.844Z,65.03
2023-03-10T11:58:45.931Z,59.37
2023-03-10T12:01:29.728Z,58.10
2023-03-10T12:04:15.048Z,62.50
2023-03-10T12:06:56.576Z,61.73
2023-03-10T12:09:44.645Z,62.37
2023-03-10T12:12:27.556Z,62.50
2023-03-10T12:15:06.736Z,56.03
2023-03-10T12:17:47.556Z,62.23
2023-03-10T12:20:39.347Z,56.73
2023-03-10T12:23:46.136Z,60.87
2023-03-10T12:26:46.876Z,64.20
2023-03-10T12:29:50.172Z,58.93
2023-03-10T12:32:52.127Z,59.40
2023-03-10T12:35:55.917Z,61.73
2023-03-10T12:38:55.954Z,58.93
2023-03-10T12:41:56.897Z,60.20
2023-03-10T12:44:53.403Z,59.20
2023-03-10T12:47:55.444Z,61.33
2023-03-10T12:50:46.450Z,57.70
2023-03-10T12:53:45.024Z,67.50
2023-03-10T12:56:44.918Z,61.17
2023-03-10T12:59:31.068Z,63.07
2023-03-10T13:02:27.865Z,59.97
2023-03-10T13:05:14.332Z,68.70
2023-03-10T13:08:01.189Z,64.13
2023-03-10T13:10:40.911Z,58.57
2023-03-10T13:13:27.524Z,63.30
2023-03-10T13:16:10.393Z,60.00
2023-03-10T13:18:57.532Z,58.40
2023-03-10T13:21:40.596Z,59.97
2023-03-10T13:24:33.971Z,70.10
2023-03-10T13:27:16.584Z,74.73
2023-03-10T13:30:08.287Z,67.17
2023-03-10T13:32:58.007Z,70.33
2023-03-10T13:35:43.906Z,70.30
2023-03-10T13:38:23.243Z,72.03
2023-03-10T13:41:08.738Z,69.40
2023-03-10T13:43:54.366Z,77.03
2023-03-10T13:46:33.499Z,72.53
2023-03-10T13:49:18.054Z,70.20
2023-03-10T13:52:05.045Z,73.00
2023-03-10T13:54:42.849Z,70.60
2023-03-10T13:57:31.558Z,82.90
2023-03-10T14:00:13.044Z,84.80
2023-03-10T14:02:53.849Z,80.43
2023-03-10T14:06:02.971Z,79.03
2023-03-10T14:08:45.710Z,79.23
2023-03-10T14:11:51.096Z,74.37
2023-03-10T14:14:52.032Z,75.97
2023-03-10T14:17:40.170Z,80.47
2023-03-10T14:20:39.584Z,80.43
2023-03-10T14:23:35.147Z,81.80
2023-03-10T14:26:21.515Z,74.07
2023-03-10T14:29:01.158Z,74.33
2023-03-10T14:31:38.919Z,83.33
2023-03-10T14:34:24.146Z,69.20
2023-03-10T14:37:01.719Z,63.50
2023-03-10T14:39:47.135Z,72.97
2023-03-10T14:42:47.207Z,65.30
2023-03-10T14:45:35.600Z,75.37
2023-03-10T14:48:26.701Z,62.73
2023-03-10T14:51:14.533Z,64.80
2023-03-10T14:53:58.057Z,73.07
2023-03-10T14:56:46.280Z,71.40
2023-03-10T14:59:31.819Z,74.20
2023-03-10T15:02:17.464Z,67.97
2023-03-10T15:04:54.092Z,74.73
2023-03-10T15:07:33.166Z,62.03
2023-03-10T15:10:15.877Z,64.03
2023-03-10T15:12:53.736Z,69.73
2023-03-10T15:15:46.245Z,70.57
2023-03-10T15:18:31.884Z,71.93
2023-03-10T15:21:12.273Z,66.57
2023-03-10T15:23:57.391Z,65.53
2023-03-10T15:26:41.568Z,69.80
2023-03-10T15:29:25.032Z,65.00
2023-03-10T15:32:11.204Z,63.20
2023-03-10T15:34:54.313Z,66.80
2023-03-10T15:37:31.079Z,65.67
2023-03-10T15:40:11.380Z,65.67
2023-03-10T15:42:55.948Z,69.40
2023-03-10T15:45:33.812Z,69.90
2023-03-10T15:48:19.188Z,67.67
2023-03-10T15:50:58.870Z,75.27
2023-03-10T15:53:35.809Z,70.80
2023-03-10T15:56:18.976Z,69.80
2023-03-10T15:58:58.509Z,76.90
2023-03-10T16:01:35.821Z,74.73
2023-03-10T16:04:26.549Z,73.23
2023-03-10T16:07:11.549Z,73.97
2023-03-10T16:09:50.197Z,78.30
2023-03-10T16:12:26.904Z,77.67
2023-03-10T16:15:06.406Z,74.30
2023-03-10T16:17:47.965Z,75.80
2023-03-10T16:20:33.218Z,84.70
2023-03-10T16:23:11.849Z,88.93
2023-03-10T16:25:48.517Z,81.90
2023-03-10T16:28:28.546Z,84.10
2023-03-10T16:31:08.001Z,81.27
2023-03-10T16:33:48.030Z,80.33
2023-03-10T16:36:38.772Z,89.20
2023-03-10T16:39:21.747Z,83.70
2023-03-10T16:42:02.886Z,77.57
2023-03-10T16:44:39.408Z,81.60
2023-03-10T16:47:17.991Z,79.83
2023-03-10T16:49:57.473Z,74.67
2023-03-10T16:52:57.070Z,83.43
2023-03-10T16:55:39.727Z,79.17
2023-03-10T16:58:19.292Z,87.13
2023-03-10T17:00:59.707Z,96.60
2023-03-10T17:03:40.975Z,90.50
2023-03-10T17:06:21.585Z,111.47
2023-03-10T17:09:09.408Z,115.33
2023-03-10T17:11:54.875Z,107.30
2023-03-10T17:14:35.017Z,124.30
2023-03-10T17:17:12.908Z,117.73
2023-03-10T17:19:50.298Z,113.03
2023-03-10T17:22:26.482Z,129.00
2023-03-10T17:25:11.062Z,118.93
2023-03-10T17:27:46.984Z,114.90
2023-03-10T17:30:26.288Z,120.27
2023-03-10T17:33:06.523Z,115.73
2023-03-10T17:35:58.885Z,108.27
2023-03-10T17:38:36.519Z,105.93
2023-03-10T17:41:15.863Z,113.23
2023-03-10T17:43:53.664Z,108.47
2023-03-10T17:46:35.339Z,131.37
2023-03-10T17:49:12.680Z,124.03
2023-03-10T17:51:49.593Z,113.97
2023-03-10T17:54:27.234Z,120.33
2023-03-10T17:57:05.338Z,122.90
2023-03-10T17:59:41.857Z,127.23
2023-03-10T18:02:22.125Z,120.97
2023-03-10T18:04:58.247Z,132.80
2023-03-10T18:07:38.711Z,135.63
2023-03-10T18:10:15.303Z,123.77
2023-03-10T18:12:54.011Z,117.13
2023-03-10T18:15:30.322Z,123.00
2023-03-10T18:18:05.850Z,129.93
2023-03-10T18:20:41.490Z,118.53
2023-03-10T18:23:19.080Z,124.40
2023-03-10T18:25:54.821Z,117.53
2023-03-10T18:28:32.631Z,115.13
2023-03-10T18:31:10.884Z,117.60
2023-03-10T18:33:47.437Z,123.70
2023-03-10T18:36:25.326Z,122.90
2023-03-10T18:39:03.988Z,119.17
2023-03-10T18:41:40.227Z,116.47
2023-03-10T18:44:17.845Z,120.97
2023-03-10T18:46:53.578Z,126.67
2023-03-10T18:49:29.244Z,119.10
2023-03-10T18:52:04.488Z,128.37
2023-03-10T18:54:40.263Z,120.83
2023-03-10T18:57:15.800Z,126.20
2023-03-10T18:59:54.049Z,115.23
2023-03-10T19:02:29.597Z,123.37
2023-03-10T19:05:06.695Z,117.83
2023-03-10T19:07:41.902Z,120.27
2023-03-10T19:10:20.106Z,123.00
2023-03-10T19:12:57.032Z,115.83
2023-03-10T19:15:35.038Z,113.73
2023-03-10T19:18:10.659Z,106.97
2023-03-10T19:20:47.886Z,118.73
2023-03-10T19:23:22.804Z,106.27
2023-03-10T19:25:58.017Z,114.03
2023-03-10T19:28:34.018Z,116.10
2023-03-10T19:31:14.569Z,112.23
2023-03-10T19:33:49.984Z,108.40
2023-03-10T19:36:28.342Z,115.30
2023-03-10T19:39:03.561Z,110.67
2023-03-10T19:41:39.030Z,106.77
2023-03-10T19:44:14.186Z,110.87
2023-03-10T19:46:51.264Z,107.53
2023-03-10T19:49:25.781Z,112.87
2023-03-10T19:52:00.681Z,112.90
2023-03-10T19:54:35.482Z,114.63
2023-03-10T19:57:14.372Z,104.97
2023-03-10T19:59:48.791Z,110.27
2023-03-10T20:02:26.256Z,110.53
2023-03-10T20:05:00.714Z,114.83
2023-03-10T20:07:34.193Z,116.40
2023-03-10T20:10:09.766Z,113.73
2023-03-10T20:12:44.109Z,109.33
2023-03-10T20:15:19.855Z,109.10
2023-03-10T20:17:56.954Z,95.37
2023-03-10T20:20:30.938Z,98.47
2023-03-10T20:23:04.587Z,107.67
2023-03-10T20:25:38.784Z,102.00
2023-03-10T20:28:13.810Z,93.80
2023-03-10T20:30:48.026Z,89.03
2023-03-10T20:33:23.424Z,85.47
2023-03-10T20:35:57.071Z,81.90
2023-03-10T20:38:30.642Z,82.27
2023-03-10T20:41:03.953Z,80.47
2023-03-10T20:43:38.594Z,85.60
2023-03-10T20:46:12.599Z,94.10
2023-03-10T20:48:48.860Z,89.80
2023-03-10T20:51:23.821Z,82.37
2023-03-10T20:53:58.259Z,79.83
2023-03-10T20:56:31.535Z,84.57
2023-03-10T20:59:06.127Z,82.13
2023-03-10T21:01:40.944Z,87.60
2023-03-10T21:04:17.075Z,79.80
2023-03-10T21:06:51.627Z,73.07
2023-03-10T21:09:25.684Z,72.47
2023-03-10T21:11:59.661Z,72.57
2023-03-10T21:14:33.716Z,69.57
2023-03-10T21:17:07.080Z,71.60
2023-03-10T21:19:45.247Z,71.00
2023-03-10T21:22:19.409Z,80.27
2023-03-10T21:24:54.538Z,72.53
2023-03-10T21:27:30.247Z,73.13
2023-03-10T21:30:06.161Z,77.03
2023-03-10T21:32:41.324Z,84.17
2023-03-10T21:35:17.454Z,80.83
2023-03-10T21:37:51.977Z,77.87
2023-03-10T21:40:26.595Z,77.77
2023-03-10T21:43:02.526Z,76.00
2023-03-10T21:45:38.972Z,78.23
2023-03-10T21:48:13.550Z,78.60
2023-03-10T21:50:50.107Z,76.40
2023-03-10T21:53:28.115Z,79.53
2023-03-10T21:56:02.166Z,80.17
2023-03-10T21:58:36.272Z,78.27
2023-03-10T22:01:12.149Z,79.17
2023-03-10T22:03:47.031Z,80.97
2023-03-10T22:06:23.635Z,91.80
2023-03-10T22:08:57.863Z,86.73
2023-03-10T22:11:33.931Z,85.53
2023-03-10T22:14:09.377Z,89.50
2023-03-10T22:16:43.389Z,78.80
2023-03-10T22:19:18.248Z,83.93
2023-03-10T22:21:55.326Z,84.13
2023-03-10T22:24:30.232Z,87.87
2023-03-10T22:27:05.432Z,86.93
2023-03-10T22:29:40.940Z,96.37
2023-03-10T22:32:16.858Z,91.03
2023-03-10T22:34:52.691Z,100.97
2023-03-10T22:37:30.132Z,98.03
2023-03-10T22:40:06.443Z,99.23
2023-03-10T22:42:42.872Z,105.83
2023-03-10T22:45:22.740Z,111.47
2023-03-10T22:47:59.004Z,112.70
2023-03-10T22:50:36.418Z,108.10
2023-03-10T22:53:19.206Z,105.17
2023-03-10T22:55:55.865Z,105.97
2023-03-10T22:58:31.129Z,98.00
2023-03-10T23:01:07.064Z,107.57
2023-03-10T23:03:43.005Z,112.67
2023-03-10T23:06:18.694Z,110.63
2023-03-10T23:08:56.446Z,110.83
2023-03-10T23:11:31.920Z,113.93
2023-03-10T23:14:07.781Z,103.00
2023-03-10T23:16:44.111Z,119.47
2023-03-10T23:19:20.549Z,118.27
2023-03-10T23:21:56.490Z,104.07
2023-03-10T23:24:34.151Z,117.47
2023-03-10T23:27:13.358Z,110.17
2023-03-10T23:29:48.257Z,111.60
2023-03-10T23:32:24.801Z,108.77
2023-03-10T23:35:00.830Z,112.83
2023-03-10T23:37:36.979Z,105.20
2023-03-10T23:40:18.456Z,108.73
2023-03-10T23:42:54.795Z,116.77
2023-03-10T23:45:33.124Z,113.33
2023-03-10T23:48:10.464Z,129.33
2023-03-10T23:50:48.047Z,118.03
2023-03-10T23:53:25.053Z,127.67
2023-03-10T23:56:02.889Z,115.37
2023-03-10T23:58:38.401Z,126.47
